sensor_id;sensor_type;location;lat;lon;timestamp;P1;durP1;ratioP1;P2;durP2;ratioP2
11743;SDS011;5929;51.906;7.674;2023-06-14T00:01:41;5.15;;;2.33;;
11743;SDS011;5929;51.906;7.674;2023-06-14T00:04:10;7.65;;;2.75;;
11743;SDS011;5929;51.906;7.674;2023-06-14T00:06:38;8.23;;;3.05;;
11743;SDS011;5929;51.906;7.674;2023-06-14T00:09:06;8.13;;;2.80;;
11743;SDS011;5929;51.906;7.674;2023-06-14T00:11:34;8.45;;;2.70;;
11743;SDS011;5929;51.906;7.674;2023-06-14T00:14:00;10.60;;;2.80;;
11743;SDS011;5929;51.906;7.674;2023-06-14T00:16:30;9.77;;;2.80;;
11743;SDS011;5929;51.906;7.674;2023-06-14T00:18:58;6.80;;;2.50;;
11743;SDS011;5929;51.906;7.674;2023-06-14T00:21:24;7.70;;;2.60;;
11743;SDS011;5929;51.906;7.674;2023-06-14T00:23:54;6.65;;;2.83;;
11743;SDS011;5929;51.906;7.674;2023-06-14T00:26:30;4.72;;;2.28;;
11743;SDS011;5929;51.906;7.674;2023-06-14T00:28:57;5.95;;;2.53;;
11743;SDS011;5929;51.906;7.674;2023-06-14T00:31:24;5.75;;;2.50;;
11743;SDS011;5929;51.906;7.674;2023-06-14T00:33:52;7.88;;;3.10;;
11743;SDS011;5929;51.906;7.674;2023-06-14T00:36:19;7.50;;;2.90;;
11743;SDS011;5929;51.906;7.674;2023-06-14T00:38:45;6.15;;;2.88;;
11743;SDS011;5929;51.906;7.674;2023-06-14T00:41:12;5.85;;;2.70;;
11743;SDS011;5929;51.906;7.674;2023-06-14T00:43:39;7.65;;;2.50;;
11743;SDS011;5929;51.906;7.674;2023-06-14T00:46:06;6.07;;;2.55;;
11743;SDS011;5929;51.906;7.674;2023-06-14T00:48:33;7.00;;;3.13;;
11743;SDS011;5929;51.906;7.674;2023-06-14T00:51:01;8.73;;;3.00;;
11743;SDS011;5929;51.906;7.674;2023-06-14T00:53:29;5.38;;;2.42;;
11743;SDS011;5929;51.906;7.674;2023-06-14T00:55:59;9.00;;;3.10;;
11743;SDS011;5929;51.906;7.674;2023-06-14T00:58:26;8.30;;;2.88;;
11743;SDS011;5929;51.906;7.674;2023-06-14T01:00:54;4.97;;;2.70;;
11743;SDS011;5929;51.906;7.674;2023-06-14T01:03:21;6.85;;;2.20;;
11743;SDS011;5929;51.906;7.674;2023-06-14T01:05:49;7.53;;;2.78;;
11743;SDS011;5929;51.906;7.674;2023-06-14T01:08:23;6.88;;;2.67;;
11743;SDS011;5929;51.906;7.674;2023-06-14T01:10:56;5.45;;;2.85;;
11743;SDS011;5929;51.906;7.674;2023-06-14T01:13:32;5.95;;;2.25;;
11743;SDS011;5929;51.906;7.674;2023-06-14T01:16:00;6.63;;;2.90;;
11743;SDS011;5929;51.906;7.674;2023-06-14T01:18:28;9.70;;;2.60;;
11743;SDS011;5929;51.906;7.674;2023-06-14T01:20:56;6.03;;;2.78;;
11743;SDS011;5929;51.906;7.674;2023-06-14T01:23:24;10.23;;;2.75;;
11743;SDS011;5929;51.906;7.674;2023-06-14T01:25:57;7.22;;;2.80;;
11743;SDS011;5929;51.906;7.674;2023-06-14T01:28:28;8.65;;;2.63;;
11743;SDS011;5929;51.906;7.674;2023-06-14T01:30:58;5.43;;;2.80;;
11743;SDS011;5929;51.906;7.674;2023-06-14T01:33:29;5.07;;;2.28;;
11743;SDS011;5929;51.906;7.674;2023-06-14T01:35:58;8.73;;;3.03;;
11743;SDS011;5929;51.906;7.674;2023-06-14T01:38:29;5.00;;;2.42;;
11743;SDS011;5929;51.906;7.674;2023-06-14T01:40:57;5.93;;;2.83;;
11743;SDS011;5929;51.906;7.674;2023-06-14T01:43:26;6.78;;;2.58;;
11743;SDS011;5929;51.906;7.674;2023-06-14T01:45:56;8.38;;;2.88;;
11743;SDS011;5929;51.906;7.674;2023-06-14T01:48:25;5.18;;;2.53;;
11743;SDS011;5929;51.906;7.674;2023-06-14T01:50:52;5.88;;;2.92;;
11743;SDS011;5929;51.906;7.674;2023-06-14T01:53:19;7.93;;;2.67;;
11743;SDS011;5929;51.906;7.674;2023-06-14T01:55:50;4.72;;;2.40;;
11743;SDS011;5929;51.906;7.674;2023-06-14T01:58:19;7.75;;;2.67;;
11743;SDS011;5929;51.906;7.674;2023-06-14T02:00:46;7.05;;;2.75;;
11743;SDS011;5929;51.906;7.674;2023-06-14T02:03:13;11.85;;;3.03;;
11743;SDS011;5929;51.906;7.674;2023-06-14T02:05:40;5.90;;;2.75;;
11743;SDS011;5929;51.906;7.674;2023-06-14T02:08:07;7.57;;;2.75;;
11743;SDS011;5929;51.906;7.674;2023-06-14T02:10:33;6.60;;;2.80;;
11743;SDS011;5929;51.906;7.674;2023-06-14T02:13:02;6.93;;;2.47;;
11743;SDS011;5929;51.906;7.674;2023-06-14T02:15:28;6.38;;;3.30;;
11743;SDS011;5929;51.906;7.674;2023-06-14T02:17:59;5.40;;;2.95;;
11743;SDS011;5929;51.906;7.674;2023-06-14T02:20:27;9.23;;;3.05;;
11743;SDS011;5929;51.906;7.674;2023-06-14T02:22:54;7.32;;;2.83;;
11743;SDS011;5929;51.906;7.674;2023-06-14T02:25:20;6.72;;;2.83;;
11743;SDS011;5929;51.906;7.674;2023-06-14T02:27:47;7.03;;;2.80;;
11743;SDS011;5929;51.906;7.674;2023-06-14T02:30:15;5.53;;;2.65;;
11743;SDS011;5929;51.906;7.674;2023-06-14T02:32:42;9.13;;;2.97;;
11743;SDS011;5929;51.906;7.674;2023-06-14T02:35:09;8.10;;;2.40;;
11743;SDS011;5929;51.906;7.674;2023-06-14T02:37:36;5.70;;;2.78;;
11743;SDS011;5929;51.906;7.674;2023-06-14T02:40:03;8.45;;;3.00;;
11743;SDS011;5929;51.906;7.674;2023-06-14T02:42:34;5.30;;;2.10;;
11743;SDS011;5929;51.906;7.674;2023-06-14T02:45:00;8.38;;;2.63;;
11743;SDS011;5929;51.906;7.674;2023-06-14T02:47:30;8.40;;;3.00;;
11743;SDS011;5929;51.906;7.674;2023-06-14T02:49:57;7.22;;;2.80;;
11743;SDS011;5929;51.906;7.674;2023-06-14T02:52:24;4.63;;;2.47;;
11743;SDS011;5929;51.906;7.674;2023-06-14T02:54:51;6.10;;;2.92;;
11743;SDS011;5929;51.906;7.674;2023-06-14T02:57:19;7.20;;;3.00;;
11743;SDS011;5929;51.906;7.674;2023-06-14T02:59:46;5.80;;;3.03;;
11743;SDS011;5929;51.906;7.674;2023-06-14T03:02:12;9.57;;;2.97;;
11743;SDS011;5929;51.906;7.674;2023-06-14T03:04:40;9.07;;;2.72;;
11743;SDS011;5929;51.906;7.674;2023-06-14T03:07:09;6.60;;;2.83;;
11743;SDS011;5929;51.906;7.674;2023-06-14T03:09:38;4.57;;;2.33;;
11743;SDS011;5929;51.906;7.674;2023-06-14T03:12:06;6.47;;;3.10;;
11743;SDS011;5929;51.906;7.674;2023-06-14T03:14:34;7.43;;;2.55;;
11743;SDS011;5929;51.906;7.674;2023-06-14T03:17:01;9.60;;;2.78;;
11743;SDS011;5929;51.906;7.674;2023-06-14T03:19:30;7.88;;;3.05;;
11743;SDS011;5929;51.906;7.674;2023-06-14T03:21:58;7.72;;;3.08;;
11743;SDS011;5929;51.906;7.674;2023-06-14T03:24:25;7.03;;;3.10;;
11743;SDS011;5929;51.906;7.674;2023-06-14T03:26:53;9.80;;;3.10;;
11743;SDS011;5929;51.906;7.674;2023-06-14T03:29:24;7.40;;;2.95;;
11743;SDS011;5929;51.906;7.674;2023-06-14T03:31:57;7.28;;;2.88;;
11743;SDS011;5929;51.906;7.674;2023-06-14T03:34:25;8.98;;;2.90;;
11743;SDS011;5929;51.906;7.674;2023-06-14T03:36:52;9.40;;;2.92;;
11743;SDS011;5929;51.906;7.674;2023-06-14T03:39:20;8.20;;;2.88;;
11743;SDS011;5929;51.906;7.674;2023-06-14T03:41:47;7.75;;;2.80;;
11743;SDS011;5929;51.906;7.674;2023-06-14T03:44:15;6.57;;;3.28;;
11743;SDS011;5929;51.906;7.674;2023-06-14T03:46:43;9.93;;;3.40;;
11743;SDS011;5929;51.906;7.674;2023-06-14T03:49:10;7.28;;;2.90;;
11743;SDS011;5929;51.906;7.674;2023-06-14T03:51:37;7.00;;;2.85;;
11743;SDS011;5929;51.906;7.674;2023-06-14T03:54:07;8.25;;;3.03;;
11743;SDS011;5929;51.906;7.674;2023-06-14T03:56:36;7.35;;;2.97;;
11743;SDS011;5929;51.906;7.674;2023-06-14T03:59:02;5.95;;;2.83;;
11743;SDS011;5929;51.906;7.674;2023-06-14T04:01:29;7.18;;;3.10;;
11743;SDS011;5929;51.906;7.674;2023-06-14T04:03:58;8.93;;;2.95;;
11743;SDS011;5929;51.906;7.674;2023-06-14T04:06:26;8.23;;;3.10;;
11743;SDS011;5929;51.906;7.674;2023-06-14T04:08:57;6.38;;;2.72;;
11743;SDS011;5929;51.906;7.674;2023-06-14T04:11:27;6.95;;;2.95;;
11743;SDS011;5929;51.906;7.674;2023-06-14T04:13:55;8.82;;;2.88;;
11743;SDS011;5929;51.906;7.674;2023-06-14T04:16:25;4.45;;;2.10;;
11743;SDS011;5929;51.906;7.674;2023-06-14T04:18:53;7.50;;;3.10;;
11743;SDS011;5929;51.906;7.674;2023-06-14T04:21:20;5.70;;;2.90;;
11743;SDS011;5929;51.906;7.674;2023-06-14T04:23:48;6.57;;;2.95;;
11743;SDS011;5929;51.906;7.674;2023-06-14T04:26:18;9.93;;;3.20;;
11743;SDS011;5929;51.906;7.674;2023-06-14T04:28:46;7.18;;;2.80;;
11743;SDS011;5929;51.906;7.674;2023-06-14T04:31:14;7.35;;;2.95;;
11743;SDS011;5929;51.906;7.674;2023-06-14T04:33:41;5.88;;;2.45;;
11743;SDS011;5929;51.906;7.674;2023-06-14T04:36:10;8.20;;;2.65;;
11743;SDS011;5929;51.906;7.674;2023-06-14T04:38:38;4.53;;;2.42;;
11743;SDS011;5929;51.906;7.674;2023-06-14T04:41:06;6.15;;;2.70;;
11743;SDS011;5929;51.906;7.674;2023-06-14T04:43:36;5.70;;;2.78;;
11743;SDS011;5929;51.906;7.674;2023-06-14T04:46:04;4.95;;;2.53;;
11743;SDS011;5929;51.906;7.674;2023-06-14T04:48:37;6.50;;;2.72;;
11743;SDS011;5929;51.906;7.674;2023-06-14T04:51:09;4.68;;;2.75;;
11743;SDS011;5929;51.906;7.674;2023-06-14T04:53:35;7.05;;;2.13;;
11743;SDS011;5929;51.906;7.674;2023-06-14T04:56:03;7.40;;;2.92;;
11743;SDS011;5929;51.906;7.674;2023-06-14T04:58:30;7.95;;;2.78;;
11743;SDS011;5929;51.906;7.674;2023-06-14T05:00:57;4.97;;;2.45;;
11743;SDS011;5929;51.906;7.674;2023-06-14T05:03:24;6.70;;;2.75;;
11743;SDS011;5929;51.906;7.674;2023-06-14T05:05:53;8.27;;;2.60;;
11743;SDS011;5929;51.906;7.674;2023-06-14T05:08:20;7.35;;;2.45;;
11743;SDS011;5929;51.906;7.674;2023-06-14T05:10:50;6.25;;;2.42;;
11743;SDS011;5929;51.906;7.674;2023-06-14T05:13:17;4.85;;;2.28;;
11743;SDS011;5929;51.906;7.674;2023-06-14T05:15:45;6.25;;;2.60;;
11743;SDS011;5929;51.906;7.674;2023-06-14T05:18:12;7.00;;;2.80;;
11743;SDS011;5929;51.906;7.674;2023-06-14T05:20:40;8.10;;;2.67;;
11743;SDS011;5929;51.906;7.674;2023-06-14T05:23:09;8.32;;;2.80;;
11743;SDS011;5929;51.906;7.674;2023-06-14T05:25:40;6.22;;;2.25;;
11743;SDS011;5929;51.906;7.674;2023-06-14T05:28:08;7.57;;;2.35;;
11743;SDS011;5929;51.906;7.674;2023-06-14T05:30:35;7.45;;;2.85;;
11743;SDS011;5929;51.906;7.674;2023-06-14T05:33:02;5.80;;;2.65;;
11743;SDS011;5929;51.906;7.674;2023-06-14T05:35:29;6.80;;;2.50;;
11743;SDS011;5929;51.906;7.674;2023-06-14T05:37:56;7.18;;;2.55;;
11743;SDS011;5929;51.906;7.674;2023-06-14T05:40:24;7.45;;;2.40;;
11743;SDS011;5929;51.906;7.674;2023-06-14T05:42:51;7.68;;;2.13;;
11743;SDS011;5929;51.906;7.674;2023-06-14T05:45:18;5.45;;;2.40;;
11743;SDS011;5929;51.906;7.674;2023-06-14T05:47:44;6.35;;;2.20;;
11743;SDS011;5929;51.906;7.674;2023-06-14T05:50:11;7.22;;;2.53;;
11743;SDS011;5929;51.906;7.674;2023-06-14T05:52:38;8.27;;;2.30;;
11743;SDS011;5929;51.906;7.674;2023-06-14T05:55:05;10.90;;;2.17;;
11743;SDS011;5929;51.906;7.674;2023-06-14T05:57:33;7.22;;;2.15;;
11743;SDS011;5929;51.906;7.674;2023-06-14T06:00:00;7.00;;;2.25;;
11743;SDS011;5929;51.906;7.674;2023-06-14T06:02:31;5.50;;;2.75;;
11743;SDS011;5929;51.906;7.674;2023-06-14T06:04:59;5.25;;;2.17;;
11743;SDS011;5929;51.906;7.674;2023-06-14T06:07:27;4.75;;;2.25;;
11743;SDS011;5929;51.906;7.674;2023-06-14T06:09:54;5.35;;;2.05;;
11743;SDS011;5929;51.906;7.674;2023-06-14T06:12:21;4.10;;;1.90;;
11743;SDS011;5929;51.906;7.674;2023-06-14T06:14:49;5.50;;;2.50;;
11743;SDS011;5929;51.906;7.674;2023-06-14T06:17:16;4.00;;;1.75;;
11743;SDS011;5929;51.906;7.674;2023-06-14T06:19:42;5.53;;;2.50;;
11743;SDS011;5929;51.906;7.674;2023-06-14T06:22:09;7.13;;;2.65;;
11743;SDS011;5929;51.906;7.674;2023-06-14T06:24:36;5.88;;;2.00;;
11743;SDS011;5929;51.906;7.674;2023-06-14T06:27:06;4.68;;;2.10;;
11743;SDS011;5929;51.906;7.674;2023-06-14T06:29:33;4.10;;;1.95;;
11743;SDS011;5929;51.906;7.674;2023-06-14T06:32:01;4.78;;;2.03;;
11743;SDS011;5929;51.906;7.674;2023-06-14T06:34:28;8.02;;;2.10;;
11743;SDS011;5929;51.906;7.674;2023-06-14T06:36:55;6.10;;;2.15;;
11743;SDS011;5929;51.906;7.674;2023-06-14T06:39:22;3.97;;;1.83;;
11743;SDS011;5929;51.906;7.674;2023-06-14T06:41:49;5.15;;;2.05;;
11743;SDS011;5929;51.906;7.674;2023-06-14T06:44:15;6.63;;;2.05;;
11743;SDS011;5929;51.906;7.674;2023-06-14T06:46:43;6.40;;;2.10;;
11743;SDS011;5929;51.906;7.674;2023-06-14T06:49:11;5.45;;;1.98;;
11743;SDS011;5929;51.906;7.674;2023-06-14T06:54:07;9.32;;;2.28;;
11743;SDS011;5929;51.906;7.674;2023-06-14T06:56:35;5.68;;;1.75;;
11743;SDS011;5929;51.906;7.674;2023-06-14T06:59:01;5.75;;;2.13;;
11743;SDS011;5929;51.906;7.674;2023-06-14T07:01:28;5.50;;;1.58;;
11743;SDS011;5929;51.906;7.674;2023-06-14T07:03:55;5.00;;;1.67;;
11743;SDS011;5929;51.906;7.674;2023-06-14T07:06:23;4.60;;;1.70;;
11743;SDS011;5929;51.906;7.674;2023-06-14T07:08:52;7.15;;;1.85;;
11743;SDS011;5929;51.906;7.674;2023-06-14T07:11:19;6.97;;;1.55;;
11743;SDS011;5929;51.906;7.674;2023-06-14T07:13:48;4.57;;;1.52;;
11743;SDS011;5929;51.906;7.674;2023-06-14T07:16:15;5.68;;;1.48;;
11743;SDS011;5929;51.906;7.674;2023-06-14T07:18:42;4.85;;;1.40;;
11743;SDS011;5929;51.906;7.674;2023-06-14T07:21:09;5.50;;;1.60;;
11743;SDS011;5929;51.906;7.674;2023-06-14T07:23:37;5.15;;;1.38;;
11743;SDS011;5929;51.906;7.674;2023-06-14T07:26:04;3.42;;;1.42;;
11743;SDS011;5929;51.906;7.674;2023-06-14T07:28:31;4.57;;;1.40;;
11743;SDS011;5929;51.906;7.674;2023-06-14T07:30:57;6.85;;;1.88;;
11743;SDS011;5929;51.906;7.674;2023-06-14T07:33:24;6.57;;;1.75;;
11743;SDS011;5929;51.906;7.674;2023-06-14T07:35:51;7.78;;;1.85;;
11743;SDS011;5929;51.906;7.674;2023-06-14T07:38:18;4.68;;;1.48;;
11743;SDS011;5929;51.906;7.674;2023-06-14T07:40:47;4.25;;;1.40;;
11743;SDS011;5929;51.906;7.674;2023-06-14T07:43:13;4.57;;;1.50;;
11743;SDS011;5929;51.906;7.674;2023-06-14T07:45:44;3.40;;;1.30;;
11743;SDS011;5929;51.906;7.674;2023-06-14T07:48:11;4.68;;;1.23;;
11743;SDS011;5929;51.906;7.674;2023-06-14T07:50:37;3.30;;;1.35;;
11743;SDS011;5929;51.906;7.674;2023-06-14T07:53:04;4.38;;;1.50;;
11743;SDS011;5929;51.906;7.674;2023-06-14T07:55:31;2.97;;;1.10;;
11743;SDS011;5929;51.906;7.674;2023-06-14T07:58:03;4.55;;;1.90;;
11743;SDS011;5929;51.906;7.674;2023-06-14T08:00:30;3.00;;;1.25;;
11743;SDS011;5929;51.906;7.674;2023-06-14T08:02:57;3.08;;;1.50;;
11743;SDS011;5929;51.906;7.674;2023-06-14T08:05:24;4.97;;;1.48;;
11743;SDS011;5929;51.906;7.674;2023-06-14T08:07:51;3.50;;;1.60;;
11743;SDS011;5929;51.906;7.674;2023-06-14T08:10:18;2.72;;;1.10;;
11743;SDS011;5929;51.906;7.674;2023-06-14T08:12:46;5.40;;;1.75;;
11743;SDS011;5929;51.906;7.674;2023-06-14T08:15:15;3.45;;;1.38;;
11743;SDS011;5929;51.906;7.674;2023-06-14T08:17:42;5.95;;;1.30;;
11743;SDS011;5929;51.906;7.674;2023-06-14T08:20:09;4.03;;;1.50;;
11743;SDS011;5929;51.906;7.674;2023-06-14T08:22:36;3.67;;;1.27;;
11743;SDS011;5929;51.906;7.674;2023-06-14T08:25:04;3.33;;;1.20;;
11743;SDS011;5929;51.906;7.674;2023-06-14T08:27:32;2.20;;;0.90;;
11743;SDS011;5929;51.906;7.674;2023-06-14T08:29:59;4.97;;;1.25;;
11743;SDS011;5929;51.906;7.674;2023-06-14T08:32:28;3.83;;;1.10;;
11743;SDS011;5929;51.906;7.674;2023-06-14T08:34:57;5.05;;;1.20;;
11743;SDS011;5929;51.906;7.674;2023-06-14T08:37:24;3.03;;;0.90;;
11743;SDS011;5929;51.906;7.674;2023-06-14T08:39:52;4.32;;;1.17;;
11743;SDS011;5929;51.906;7.674;2023-06-14T08:42:18;2.97;;;0.90;;
11743;SDS011;5929;51.906;7.674;2023-06-14T08:44:50;4.00;;;0.90;;
11743;SDS011;5929;51.906;7.674;2023-06-14T08:47:16;2.25;;;0.88;;
11743;SDS011;5929;51.906;7.674;2023-06-14T08:49:47;1.85;;;0.73;;
11743;SDS011;5929;51.906;7.674;2023-06-14T08:52:15;5.32;;;1.00;;
11743;SDS011;5929;51.906;7.674;2023-06-14T08:54:45;4.70;;;1.05;;
11743;SDS011;5929;51.906;7.674;2023-06-14T08:57:13;4.68;;;1.00;;
11743;SDS011;5929;51.906;7.674;2023-06-14T08:59:45;3.70;;;0.95;;
11743;SDS011;5929;51.906;7.674;2023-06-14T09:02:14;5.53;;;1.17;;
11743;SDS011;5929;51.906;7.674;2023-06-14T09:04:43;2.67;;;1.00;;
11743;SDS011;5929;51.906;7.674;2023-06-14T09:07:11;3.15;;;0.98;;
11743;SDS011;5929;51.906;7.674;2023-06-14T09:09:39;2.53;;;0.82;;
11743;SDS011;5929;51.906;7.674;2023-06-14T09:12:09;3.13;;;1.00;;
11743;SDS011;5929;51.906;7.674;2023-06-14T09:14:37;4.10;;;0.95;;
11743;SDS011;5929;51.906;7.674;2023-06-14T09:17:07;4.22;;;1.15;;
11743;SDS011;5929;51.906;7.674;2023-06-14T09:19:34;4.30;;;1.02;;
11743;SDS011;5929;51.906;7.674;2023-06-14T09:22:02;3.05;;;1.00;;
11743;SDS011;5929;51.906;7.674;2023-06-14T09:24:31;3.42;;;1.30;;
11743;SDS011;5929;51.906;7.674;2023-06-14T09:26:58;3.58;;;0.85;;
11743;SDS011;5929;51.906;7.674;2023-06-14T09:29:25;4.43;;;1.10;;
11743;SDS011;5929;51.906;7.674;2023-06-14T09:31:52;2.75;;;0.98;;
11743;SDS011;5929;51.906;7.674;2023-06-14T09:34:21;5.57;;;1.10;;
11743;SDS011;5929;51.906;7.674;2023-06-14T09:36:49;4.70;;;1.52;;
11743;SDS011;5929;51.906;7.674;2023-06-14T09:39:17;3.80;;;1.50;;
11743;SDS011;5929;51.906;7.674;2023-06-14T09:41:45;5.03;;;1.23;;
11743;SDS011;5929;51.906;7.674;2023-06-14T09:44:12;5.18;;;1.00;;
11743;SDS011;5929;51.906;7.674;2023-06-14T09:46:41;5.30;;;1.20;;
11743;SDS011;5929;51.906;7.674;2023-06-14T09:49:08;5.93;;;1.20;;
11743;SDS011;5929;51.906;7.674;2023-06-14T09:51:36;4.68;;;1.25;;
11743;SDS011;5929;51.906;7.674;2023-06-14T09:54:12;5.60;;;1.02;;
11743;SDS011;5929;51.906;7.674;2023-06-14T09:56:43;2.75;;;1.15;;
11743;SDS011;5929;51.906;7.674;2023-06-14T09:59:13;4.28;;;1.13;;
11743;SDS011;5929;51.906;7.674;2023-06-14T10:01:45;3.40;;;1.20;;
11743;SDS011;5929;51.906;7.674;2023-06-14T10:04:13;4.65;;;1.10;;
11743;SDS011;5929;51.906;7.674;2023-06-14T10:06:43;3.13;;;1.15;;
11743;SDS011;5929;51.906;7.674;2023-06-14T10:09:12;2.75;;;1.00;;
11743;SDS011;5929;51.906;7.674;2023-06-14T10:11:39;3.80;;;1.10;;
11743;SDS011;5929;51.906;7.674;2023-06-14T10:14:10;2.78;;;0.82;;
11743;SDS011;5929;51.906;7.674;2023-06-14T10:16:41;2.78;;;1.08;;
11743;SDS011;5929;51.906;7.674;2023-06-14T10:19:13;3.65;;;1.02;;
11743;SDS011;5929;51.906;7.674;2023-06-14T10:21:49;4.60;;;1.20;;
11743;SDS011;5929;51.906;7.674;2023-06-14T10:24:24;3.42;;;1.45;;
11743;SDS011;5929;51.906;7.674;2023-06-14T10:26:57;4.35;;;1.35;;
11743;SDS011;5929;51.906;7.674;2023-06-14T10:29:26;3.78;;;1.42;;
11743;SDS011;5929;51.906;7.674;2023-06-14T10:31:57;5.50;;;1.40;;
11743;SDS011;5929;51.906;7.674;2023-06-14T10:34:25;5.35;;;1.23;;
11743;SDS011;5929;51.906;7.674;2023-06-14T10:37:02;3.33;;;1.10;;
11743;SDS011;5929;51.906;7.674;2023-06-14T10:39:31;4.72;;;1.40;;
11743;SDS011;5929;51.906;7.674;2023-06-14T10:41:58;4.60;;;1.35;;
11743;SDS011;5929;51.906;7.674;2023-06-14T10:50:07;3.70;;;1.40;;
11743;SDS011;5929;51.906;7.674;2023-06-14T10:52:38;4.15;;;1.20;;
11743;SDS011;5929;51.906;7.674;2023-06-14T10:55:07;5.80;;;1.40;;
11743;SDS011;5929;51.906;7.674;2023-06-14T10:57:40;3.22;;;1.40;;
11743;SDS011;5929;51.906;7.674;2023-06-14T11:00:10;3.33;;;1.23;;
11743;SDS011;5929;51.906;7.674;2023-06-14T11:02:46;4.25;;;1.45;;
11743;SDS011;5929;51.906;7.674;2023-06-14T11:05:41;3.55;;;1.20;;
11743;SDS011;5929;51.906;7.674;2023-06-14T11:11:11;3.45;;;1.30;;
11743;SDS011;5929;51.906;7.674;2023-06-14T11:13:41;4.35;;;1.20;;
11743;SDS011;5929;51.906;7.674;2023-06-14T11:16:13;5.47;;;1.67;;
11743;SDS011;5929;51.906;7.674;2023-06-14T11:18:41;6.85;;;1.35;;
11743;SDS011;5929;51.906;7.674;2023-06-14T11:21:09;3.72;;;1.60;;
11743;SDS011;5929;51.906;7.674;2023-06-14T11:23:36;4.70;;;1.20;;
11743;SDS011;5929;51.906;7.674;2023-06-14T11:26:03;2.92;;;1.10;;
11743;SDS011;5929;51.906;7.674;2023-06-14T11:28:37;5.30;;;1.20;;
11743;SDS011;5929;51.906;7.674;2023-06-14T11:31:05;3.00;;;1.40;;
11743;SDS011;5929;51.906;7.674;2023-06-14T11:33:36;4.18;;;1.67;;
11743;SDS011;5929;51.906;7.674;2023-06-14T11:36:03;4.75;;;1.60;;
11743;SDS011;5929;51.906;7.674;2023-06-14T11:38:35;4.13;;;1.30;;
11743;SDS011;5929;51.906;7.674;2023-06-14T11:41:02;3.03;;;1.45;;
11743;SDS011;5929;51.906;7.674;2023-06-14T11:43:32;3.22;;;1.35;;
11743;SDS011;5929;51.906;7.674;2023-06-14T11:46:00;5.00;;;1.40;;
11743;SDS011;5929;51.906;7.674;2023-06-14T11:48:36;6.25;;;1.65;;
11743;SDS011;5929;51.906;7.674;2023-06-14T11:51:04;4.43;;;1.50;;
11743;SDS011;5929;51.906;7.674;2023-06-14T11:53:31;3.65;;;1.58;;
11743;SDS011;5929;51.906;7.674;2023-06-14T11:55:58;4.72;;;1.60;;
11743;SDS011;5929;51.906;7.674;2023-06-14T11:58:26;3.83;;;1.63;;
11743;SDS011;5929;51.906;7.674;2023-06-14T12:01:16;4.22;;;1.60;;
11743;SDS011;5929;51.906;7.674;2023-06-14T12:03:48;6.15;;;1.98;;
11743;SDS011;5929;51.906;7.674;2023-06-14T12:06:15;5.15;;;1.40;;
11743;SDS011;5929;51.906;7.674;2023-06-14T12:08:54;5.53;;;1.60;;
11743;SDS011;5929;51.906;7.674;2023-06-14T12:11:24;5.43;;;1.60;;
11743;SDS011;5929;51.906;7.674;2023-06-14T12:13:58;5.43;;;1.60;;
11743;SDS011;5929;51.906;7.674;2023-06-14T12:16:29;3.55;;;1.42;;
11743;SDS011;5929;51.906;7.674;2023-06-14T12:19:01;3.70;;;1.58;;
11743;SDS011;5929;51.906;7.674;2023-06-14T12:21:36;2.58;;;1.08;;
11743;SDS011;5929;51.906;7.674;2023-06-14T12:24:05;3.80;;;1.50;;
11743;SDS011;5929;51.906;7.674;2023-06-14T12:26:32;3.40;;;1.35;;
11743;SDS011;5929;51.906;7.674;2023-06-14T12:29:00;5.82;;;1.60;;
11743;SDS011;5929;51.906;7.674;2023-06-14T12:31:27;3.05;;;1.40;;
11743;SDS011;5929;51.906;7.674;2023-06-14T12:33:54;7.63;;;1.55;;
11743;SDS011;5929;51.906;7.674;2023-06-14T12:36:23;5.45;;;1.65;;
11743;SDS011;5929;51.906;7.674;2023-06-14T12:38:50;3.45;;;1.35;;
11743;SDS011;5929;51.906;7.674;2023-06-14T12:41:18;3.65;;;1.60;;
11743;SDS011;5929;51.906;7.674;2023-06-14T12:43:46;3.25;;;1.20;;
11743;SDS011;5929;51.906;7.674;2023-06-14T12:46:13;4.82;;;1.80;;
11743;SDS011;5929;51.906;7.674;2023-06-14T12:48:39;3.97;;;1.52;;
11743;SDS011;5929;51.906;7.674;2023-06-14T12:51:06;4.25;;;1.50;;
11743;SDS011;5929;51.906;7.674;2023-06-14T12:53:34;4.72;;;1.58;;
11743;SDS011;5929;51.906;7.674;2023-06-14T12:56:04;4.47;;;1.70;;
11743;SDS011;5929;51.906;7.674;2023-06-14T12:58:31;5.28;;;1.92;;
11743;SDS011;5929;51.906;7.674;2023-06-14T13:00:57;3.97;;;1.70;;
11743;SDS011;5929;51.906;7.674;2023-06-14T13:03:26;3.63;;;1.40;;
11743;SDS011;5929;51.906;7.674;2023-06-14T13:05:53;4.90;;;1.50;;
11743;SDS011;5929;51.906;7.674;2023-06-14T13:08:20;5.75;;;1.77;;
11743;SDS011;5929;51.906;7.674;2023-06-14T13:10:49;5.68;;;1.60;;
11743;SDS011;5929;51.906;7.674;2023-06-14T13:13:16;4.15;;;1.50;;
11743;SDS011;5929;51.906;7.674;2023-06-14T13:15:43;2.83;;;1.33;;
11743;SDS011;5929;51.906;7.674;2023-06-14T13:18:11;4.72;;;2.00;;
11743;SDS011;5929;51.906;7.674;2023-06-14T13:20:38;4.13;;;1.80;;
11743;SDS011;5929;51.906;7.674;2023-06-14T13:23:05;4.05;;;1.65;;
11743;SDS011;5929;51.906;7.674;2023-06-14T13:25:32;3.50;;;1.35;;
11743;SDS011;5929;51.906;7.674;2023-06-14T13:28:00;4.38;;;1.77;;
11743;SDS011;5929;51.906;7.674;2023-06-14T13:30:27;4.50;;;1.58;;
11743;SDS011;5929;51.906;7.674;2023-06-14T13:32:54;3.53;;;1.60;;
11743;SDS011;5929;51.906;7.674;2023-06-14T13:35:22;3.97;;;1.55;;
11743;SDS011;5929;51.906;7.674;2023-06-14T13:37:49;6.50;;;1.70;;
11743;SDS011;5929;51.906;7.674;2023-06-14T13:40:16;4.03;;;1.58;;
11743;SDS011;5929;51.906;7.674;2023-06-14T13:42:42;3.90;;;1.55;;
11743;SDS011;5929;51.906;7.674;2023-06-14T13:45:11;3.05;;;1.30;;
11743;SDS011;5929;51.906;7.674;2023-06-14T13:47:39;5.05;;;1.73;;
11743;SDS011;5929;51.906;7.674;2023-06-14T13:50:06;3.10;;;1.38;;
11743;SDS011;5929;51.906;7.674;2023-06-14T13:52:36;6.55;;;1.70;;
11743;SDS011;5929;51.906;7.674;2023-06-14T13:55:03;5.22;;;1.73;;
11743;SDS011;5929;51.906;7.674;2023-06-14T13:57:34;5.85;;;1.80;;
11743;SDS011;5929;51.906;7.674;2023-06-14T14:00:01;4.75;;;1.73;;
11743;SDS011;5929;51.906;7.674;2023-06-14T14:02:29;3.25;;;1.48;;
11743;SDS011;5929;51.906;7.674;2023-06-14T14:04:56;3.25;;;1.30;;
11743;SDS011;5929;51.906;7.674;2023-06-14T14:07:23;4.40;;;1.70;;
11743;SDS011;5929;51.906;7.674;2023-06-14T14:09:50;3.72;;;1.60;;
11743;SDS011;5929;51.906;7.674;2023-06-14T14:12:18;5.45;;;1.70;;
11743;SDS011;5929;51.906;7.674;2023-06-14T14:14:45;3.72;;;1.50;;
11743;SDS011;5929;51.906;7.674;2023-06-14T14:17:12;3.85;;;1.65;;
11743;SDS011;5929;51.906;7.674;2023-06-14T14:19:40;5.50;;;2.00;;
11743;SDS011;5929;51.906;7.674;2023-06-14T14:22:07;3.08;;;1.40;;
11743;SDS011;5929;51.906;7.674;2023-06-14T14:24:34;5.82;;;1.60;;
11743;SDS011;5929;51.906;7.674;2023-06-14T14:27:01;4.03;;;1.40;;
11743;SDS011;5929;51.906;7.674;2023-06-14T14:29:28;5.45;;;1.70;;
11743;SDS011;5929;51.906;7.674;2023-06-14T14:31:57;3.75;;;1.80;;
11743;SDS011;5929;51.906;7.674;2023-06-14T14:34:24;4.47;;;1.33;;
11743;SDS011;5929;51.906;7.674;2023-06-14T14:36:53;5.35;;;1.40;;
11743;SDS011;5929;51.906;7.674;2023-06-14T14:39:21;3.50;;;1.42;;
11743;SDS011;5929;51.906;7.674;2023-06-14T14:41:48;3.90;;;1.48;;
11743;SDS011;5929;51.906;7.674;2023-06-14T14:44:16;3.47;;;1.38;;
11743;SDS011;5929;51.906;7.674;2023-06-14T14:46:44;5.90;;;1.35;;
11743;SDS011;5929;51.906;7.674;2023-06-14T14:49:11;3.72;;;1.42;;
11743;SDS011;5929;51.906;7.674;2023-06-14T14:51:38;3.75;;;1.48;;
11743;SDS011;5929;51.906;7.674;2023-06-14T14:54:06;3.10;;;1.65;;
11743;SDS011;5929;51.906;7.674;2023-06-14T14:56:33;3.65;;;1.60;;
11743;SDS011;5929;51.906;7.674;2023-06-14T14:59:02;4.55;;;1.50;;
11743;SDS011;5929;51.906;7.674;2023-06-14T15:01:30;5.35;;;1.70;;
11743;SDS011;5929;51.906;7.674;2023-06-14T15:03:57;5.53;;;1.75;;
11743;SDS011;5929;51.906;7.674;2023-06-14T15:06:23;4.43;;;1.70;;
11743;SDS011;5929;51.906;7.674;2023-06-14T15:08:50;5.85;;;1.73;;
11743;SDS011;5929;51.906;7.674;2023-06-14T15:11:18;5.50;;;1.60;;
11743;SDS011;5929;51.906;7.674;2023-06-14T15:13:46;3.70;;;1.55;;
11743;SDS011;5929;51.906;7.674;2023-06-14T15:16:13;4.43;;;1.58;;
11743;SDS011;5929;51.906;7.674;2023-06-14T15:18:40;4.75;;;1.73;;